Burt, NY (14028)

10:09 AM EDT on March 24, 2017 (GMT -0400)
Burt, New York- Niagara County | | Change Station

Elev 344 ft 43.29 °N, 78.72 °W | Updated 24 seconds ago

Overcast
Overcast
40.0 °F
Feels Like 40 °F
N
3.0
Wind Variable Wind from South

Today
High -- | Low -- °F
--% Chance of Precip.
Yesterday
High -- | Low -- °F
Precip. -- in
Pressure 30.09 in
Visibility 9.0 miles
Clouds Overcast 5000 ft
Windchill 40 °F
Dew Point 39 °F
Humidity 98%
Rainfall 0.22 in
Snow Depth Not available.
7:10 AM 7:32 PM
Waning Crescent, 15% visible
METAR KIAG 241353Z 19006KT 9SM OVC050 06/03 A3005 RMK AO2 SLP189 T00560028
Pressure 30.09 in
Visibility 9.0 miles
Clouds Overcast 5000 ft
Windchill 40 °F
Dew Point 39 °F
Humidity 98%
Rainfall 0.22 in
Snow Depth Not available.
7:10 AM 7:32 PM
Waning Crescent, 15% visible
METAR KIAG 241353Z 19006KT 9SM OVC050 06/03 A3005 RMK AO2 SLP189 T00560028

Get Severe Weather Alerts

Thanks for signing up!

Be on the lookout for a verification email in your inbox.

You'll start receiving the daily forecast at 8 AM.

×

10-Day Weather Forecast

Almanac

Astronomy

Mar. 24, 2017 Rise Set
Actual Time
Civil Twilight
Nautical Twilight
Astronomical Twilight
Moon
Length of Visible Light
Length of Day
Tomorrow will be .
, % of the Moon is Illuminated

Today's Extremes

State Highs State Lows

Community

WunderPhotos

Upload Photos

1,962,540 photos uploaded!

WunderBlog® & News

Nearby

Air Quality

  Air Quality AQ Index Pollutant
Not available.

Snow Depth

Station Depth Elevation

Earthquake Activity

City Distance Mag. Time & Date
Minimum magnitude displayed is 2.5.

Earthquake Activity

City Distance Mag. Time & Date
Minimum magnitude displayed is 2.5.

Coastal Water Temperatures

Place Temperature

Stations

Nearby Weather Stations

Station Location Temp. Windchill Dew Point Humidity Wind Precip. Elev Updated Type
                   

Watches & Warnings

There are currently no watches in effect.